sensor_id;sensor_type;location;lat;lon;timestamp;pressure;altitude;pressure_sealevel;temperature;humidity
21760;BME280;11041;50.854;20.580;2023-04-15T00:01:12;97592.84;;;9.61;97.67
21760;BME280;11041;50.854;20.580;2023-04-15T00:03:44;97598.66;;;9.59;97.75
21760;BME280;11041;50.854;20.580;2023-04-15T00:06:11;97605.28;;;9.58;98.05
21760;BME280;11041;50.854;20.580;2023-04-15T00:08:38;97612.84;;;9.62;98.27
21760;BME280;11041;50.854;20.580;2023-04-15T00:11:05;97603.13;;;9.64;98.25
21760;BME280;11041;50.854;20.580;2023-04-15T00:13:32;97598.13;;;9.66;97.95
21760;BME280;11041;50.854;20.580;2023-04-15T00:16:00;97606.69;;;9.65;98.39
21760;BME280;11041;50.854;20.580;2023-04-15T00:18:27;97602.34;;;9.64;98.14
21760;BME280;11041;50.854;20.580;2023-04-15T00:20:54;97593.31;;;9.63;97.68
21760;BME280;11041;50.854;20.580;2023-04-15T00:23:21;97601.88;;;9.62;98.18
21760;BME280;11041;50.854;20.580;2023-04-15T00:25:47;97608.03;;;9.58;98.03
21760;BME280;11041;50.854;20.580;2023-04-15T00:28:14;97610.78;;;9.58;98.49
21760;BME280;11041;50.854;20.580;2023-04-15T00:30:40;97610.09;;;9.62;98.50
21760;BME280;11041;50.854;20.580;2023-04-15T00:33:07;97607.81;;;9.64;98.27
21760;BME280;11041;50.854;20.580;2023-04-15T00:35:33;97600.38;;;9.64;97.92
21760;BME280;11041;50.854;20.580;2023-04-15T00:38:02;97612.28;;;9.68;98.26
21760;BME280;11041;50.854;20.580;2023-04-15T00:40:30;97613.44;;;9.67;98.48
21760;BME280;11041;50.854;20.580;2023-04-15T00:42:56;97608.28;;;9.66;98.38
21760;BME280;11041;50.854;20.580;2023-04-15T00:45:23;97606.47;;;9.70;98.14
21760;BME280;11041;50.854;20.580;2023-04-15T00:47:50;97601.31;;;9.68;98.07
21760;BME280;11041;50.854;20.580;2023-04-15T00:50:16;97610.81;;;9.71;97.95
21760;BME280;11041;50.854;20.580;2023-04-15T00:52:43;97616.78;;;9.73;98.00
21760;BME280;11041;50.854;20.580;2023-04-15T00:55:09;97623.19;;;9.77;98.12
21760;BME280;11041;50.854;20.580;2023-04-15T00:57:38;97614.50;;;9.75;97.84
21760;BME280;11041;50.854;20.580;2023-04-15T01:00:05;97608.75;;;9.68;97.85
21760;BME280;11041;50.854;20.580;2023-04-15T01:02:35;97618.25;;;9.70;98.22
21760;BME280;11041;50.854;20.580;2023-04-15T01:05:04;97609.00;;;9.75;97.62
21760;BME280;11041;50.854;20.580;2023-04-15T01:07:31;97607.06;;;9.75;97.42
21760;BME280;11041;50.854;20.580;2023-04-15T01:09:58;97601.25;;;9.77;97.32
21760;BME280;11041;50.854;20.580;2023-04-15T01:12:26;97603.16;;;9.76;97.31
21760;BME280;11041;50.854;20.580;2023-04-15T01:14:54;97595.50;;;9.70;97.75
21760;BME280;11041;50.854;20.580;2023-04-15T01:17:23;97594.91;;;9.64;98.04
21760;BME280;11041;50.854;20.580;2023-04-15T01:19:50;97605.22;;;9.67;98.34
21760;BME280;11041;50.854;20.580;2023-04-15T01:22:17;97607.13;;;9.67;98.34
21760;BME280;11041;50.854;20.580;2023-04-15T01:24:58;97609.56;;;9.68;98.21
21760;BME280;11041;50.854;20.580;2023-04-15T01:27:27;97602.34;;;9.64;98.16
21760;BME280;11041;50.854;20.580;2023-04-15T01:29:54;97610.91;;;9.62;98.19
21760;BME280;11041;50.854;20.580;2023-04-15T01:32:20;97618.09;;;9.67;98.43
21760;BME280;11041;50.854;20.580;2023-04-15T01:34:46;97621.06;;;9.62;98.60
21760;BME280;11041;50.854;20.580;2023-04-15T01:37:13;97598.06;;;9.54;98.38
21760;BME280;11041;50.854;20.580;2023-04-15T01:39:39;97617.41;;;9.57;98.65
21760;BME280;11041;50.854;20.580;2023-04-15T01:42:06;97618.69;;;9.60;98.48
21760;BME280;11041;50.854;20.580;2023-04-15T01:44:32;97627.69;;;9.60;98.54
21760;BME280;11041;50.854;20.580;2023-04-15T01:46:59;97626.44;;;9.58;98.70
21760;BME280;11041;50.854;20.580;2023-04-15T01:49:25;97626.06;;;9.59;98.58
21760;BME280;11041;50.854;20.580;2023-04-15T01:51:52;97634.78;;;9.62;98.61
21760;BME280;11041;50.854;20.580;2023-04-15T01:54:19;97637.19;;;9.63;98.27
21760;BME280;11041;50.854;20.580;2023-04-15T01:56:45;97622.31;;;9.64;98.21
21760;BME280;11041;50.854;20.580;2023-04-15T01:59:11;97621.88;;;9.62;98.25
21760;BME280;11041;50.854;20.580;2023-04-15T02:01:39;97623.94;;;9.65;97.97
21760;BME280;11041;50.854;20.580;2023-04-15T02:04:05;97627.97;;;9.68;97.61
21760;BME280;11041;50.854;20.580;2023-04-15T02:06:33;97627.50;;;9.66;97.35
21760;BME280;11041;50.854;20.580;2023-04-15T02:08:59;97633.91;;;9.70;97.29
21760;BME280;11041;50.854;20.580;2023-04-15T02:11:25;97621.06;;;9.62;97.11
21760;BME280;11041;50.854;20.580;2023-04-15T02:13:52;97623.34;;;9.59;97.57
21760;BME280;11041;50.854;20.580;2023-04-15T02:16:19;97623.16;;;9.65;97.54
21760;BME280;11041;50.854;20.580;2023-04-15T02:18:46;97622.31;;;9.64;97.60
21760;BME280;11041;50.854;20.580;2023-04-15T02:21:13;97615.94;;;9.60;96.83
21760;BME280;11041;50.854;20.580;2023-04-15T02:23:39;97618.09;;;9.67;96.51
21760;BME280;11041;50.854;20.580;2023-04-15T02:26:06;97609.28;;;9.61;96.68
21760;BME280;11041;50.854;20.580;2023-04-15T02:28:33;97621.75;;;9.58;96.54
21760;BME280;11041;50.854;20.580;2023-04-15T02:30:59;97637.53;;;9.62;96.34
21760;BME280;11041;50.854;20.580;2023-04-15T02:33:27;97633.88;;;9.57;96.25
21760;BME280;11041;50.854;20.580;2023-04-15T02:35:53;97631.25;;;9.61;96.08
21760;BME280;11041;50.854;20.580;2023-04-15T02:38:20;97620.59;;;9.59;95.86
21760;BME280;11041;50.854;20.580;2023-04-15T02:40:46;97634.78;;;9.62;95.61
21760;BME280;11041;50.854;20.580;2023-04-15T02:43:14;97624.38;;;9.55;95.41
21760;BME280;11041;50.854;20.580;2023-04-15T02:45:43;97632.25;;;9.56;95.42
21760;BME280;11041;50.854;20.580;2023-04-15T02:48:10;97633.38;;;9.55;95.39
21760;BME280;11041;50.854;20.580;2023-04-15T02:50:37;97630.66;;;9.55;95.58
21760;BME280;11041;50.854;20.580;2023-04-15T02:53:06;97637.47;;;9.49;95.05
21760;BME280;11041;50.854;20.580;2023-04-15T02:55:33;97639.63;;;9.44;95.30
21760;BME280;11041;50.854;20.580;2023-04-15T02:57:59;97641.34;;;9.48;95.24
21760;BME280;11041;50.854;20.580;2023-04-15T03:00:26;97645.69;;;9.49;95.03
21760;BME280;11041;50.854;20.580;2023-04-15T03:03:02;97638.00;;;9.43;95.05
21760;BME280;11041;50.854;20.580;2023-04-15T03:05:29;97653.25;;;9.52;95.29
21760;BME280;11041;50.854;20.580;2023-04-15T03:07:56;97655.97;;;9.52;95.03
21760;BME280;11041;50.854;20.580;2023-04-15T03:10:23;97658.41;;;9.54;94.94
21760;BME280;11041;50.854;20.580;2023-04-15T03:12:49;97655.66;;;9.54;95.07
21760;BME280;11041;50.854;20.580;2023-04-15T03:15:16;97644.22;;;9.52;95.17
21760;BME280;11041;50.854;20.580;2023-04-15T03:17:42;97645.00;;;9.52;94.96
21760;BME280;11041;50.854;20.580;2023-04-15T03:20:09;97656.13;;;9.56;94.75
21760;BME280;11041;50.854;20.580;2023-04-15T03:22:36;97650.38;;;9.49;94.91
21760;BME280;11041;50.854;20.580;2023-04-15T03:25:03;97655.88;;;9.49;94.81
21760;BME280;11041;50.854;20.580;2023-04-15T03:27:29;97662.63;;;9.51;95.09
21760;BME280;11041;50.854;20.580;2023-04-15T03:29:56;97656.06;;;9.44;95.47
21760;BME280;11041;50.854;20.580;2023-04-15T03:32:23;97655.28;;;9.43;95.87
21760;BME280;11041;50.854;20.580;2023-04-15T03:34:49;97657.38;;;9.37;96.01
21760;BME280;11041;50.854;20.580;2023-04-15T03:37:16;97656.28;;;9.38;96.04
21760;BME280;11041;50.854;20.580;2023-04-15T03:39:42;97653.38;;;9.35;96.34
21760;BME280;11041;50.854;20.580;2023-04-15T03:42:09;97662.56;;;9.39;96.28
21760;BME280;11041;50.854;20.580;2023-04-15T03:44:36;97664.63;;;9.42;96.21
21760;BME280;11041;50.854;20.580;2023-04-15T03:47:03;97654.31;;;9.39;96.25
21760;BME280;11041;50.854;20.580;2023-04-15T03:49:30;97662.66;;;9.43;96.45
21760;BME280;11041;50.854;20.580;2023-04-15T03:51:56;97659.66;;;9.35;96.20
21760;BME280;11041;50.854;20.580;2023-04-15T03:54:23;97657.38;;;9.37;96.31
21760;BME280;11041;50.854;20.580;2023-04-15T03:56:49;97661.88;;;9.42;96.23
21760;BME280;11041;50.854;20.580;2023-04-15T03:59:16;97654.31;;;9.39;96.31
21760;BME280;11041;50.854;20.580;2023-04-15T04:01:42;97659.13;;;9.42;96.14
21760;BME280;11041;50.854;20.580;2023-04-15T04:04:09;97638.56;;;9.36;95.82
21760;BME280;11041;50.854;20.580;2023-04-15T04:06:35;97636.34;;;9.29;95.30
21760;BME280;11041;50.854;20.580;2023-04-15T04:09:02;97662.06;;;9.37;95.44
21760;BME280;11041;50.854;20.580;2023-04-15T04:11:28;97658.88;;;9.35;95.50
21760;BME280;11041;50.854;20.580;2023-04-15T04:13:55;97671.09;;;9.37;95.25
21760;BME280;11041;50.854;20.580;2023-04-15T04:16:21;97674.19;;;9.36;95.35
21760;BME280;11041;50.854;20.580;2023-04-15T04:18:48;97675.31;;;9.35;95.27
21760;BME280;11041;50.854;20.580;2023-04-15T04:21:15;97682.25;;;9.32;95.40
21760;BME280;11041;50.854;20.580;2023-04-15T04:23:42;97665.22;;;9.27;95.28
21760;BME280;11041;50.854;20.580;2023-04-15T04:26:08;97681.47;;;9.32;95.43
21760;BME280;11041;50.854;20.580;2023-04-15T04:28:35;97671.66;;;9.31;95.32
21760;BME280;11041;50.854;20.580;2023-04-15T04:31:01;97680.78;;;9.35;95.21
21760;BME280;11041;50.854;20.580;2023-04-15T04:33:28;97675.66;;;9.33;95.17
21760;BME280;11041;50.854;20.580;2023-04-15T04:35:54;97670.69;;;9.27;95.11
21760;BME280;11041;50.854;20.580;2023-04-15T04:38:21;97685.00;;;9.32;94.77
21760;BME280;11041;50.854;20.580;2023-04-15T04:40:47;97674.72;;;9.29;95.00
21760;BME280;11041;50.854;20.580;2023-04-15T04:43:14;97690.69;;;9.27;94.80
21760;BME280;11041;50.854;20.580;2023-04-15T04:45:41;97684.88;;;9.29;94.84
21760;BME280;11041;50.854;20.580;2023-04-15T04:48:08;97685.69;;;9.29;94.80
21760;BME280;11041;50.854;20.580;2023-04-15T04:50:36;97700.06;;;9.26;94.54
21760;BME280;11041;50.854;20.580;2023-04-15T04:53:02;97705.00;;;9.33;94.49
21760;BME280;11041;50.854;20.580;2023-04-15T04:55:29;97701.81;;;9.31;94.67
21760;BME280;11041;50.854;20.580;2023-04-15T04:57:57;97698.59;;;9.29;94.42
21760;BME280;11041;50.854;20.580;2023-04-15T05:00:24;97710.94;;;9.35;94.02
21760;BME280;11041;50.854;20.580;2023-04-15T05:02:50;97711.09;;;9.38;94.04
21760;BME280;11041;50.854;20.580;2023-04-15T05:05:17;97714.16;;;9.37;93.72
21760;BME280;11041;50.854;20.580;2023-04-15T05:07:43;97708.09;;;9.31;93.57
21760;BME280;11041;50.854;20.580;2023-04-15T05:10:10;97714.50;;;9.35;93.27
21760;BME280;11041;50.854;20.580;2023-04-15T05:12:36;97704.53;;;9.31;93.41
21760;BME280;11041;50.854;20.580;2023-04-15T05:15:05;97715.31;;;9.36;93.12
21760;BME280;11041;50.854;20.580;2023-04-15T05:17:32;97718.06;;;9.36;93.15
21760;BME280;11041;50.854;20.580;2023-04-15T05:20:02;97714.63;;;9.39;93.08
21760;BME280;11041;50.854;20.580;2023-04-15T05:22:29;97721.72;;;9.40;92.68
21760;BME280;11041;50.854;20.580;2023-04-15T05:24:55;97728.63;;;9.46;92.57
21760;BME280;11041;50.854;20.580;2023-04-15T05:27:22;97735.22;;;9.45;92.42
21760;BME280;11041;50.854;20.580;2023-04-15T05:29:49;97716.59;;;9.38;92.13
21760;BME280;11041;50.854;20.580;2023-04-15T05:32:21;97717.19;;;9.44;92.00
21760;BME280;11041;50.854;20.580;2023-04-15T05:34:49;97722.00;;;9.47;91.99
21760;BME280;11041;50.854;20.580;2023-04-15T05:37:30;97718.13;;;9.48;91.65
21760;BME280;11041;50.854;20.580;2023-04-15T05:40:10;97714.91;;;9.46;91.46
21760;BME280;11041;50.854;20.580;2023-04-15T05:42:49;97723.16;;;9.46;91.42
21760;BME280;11041;50.854;20.580;2023-04-15T05:45:43;97730.69;;;9.49;91.64
21760;BME280;11041;50.854;20.580;2023-04-15T05:48:29;97725.88;;;9.46;91.06
21760;BME280;11041;50.854;20.580;2023-04-15T05:50:56;97716.25;;;9.40;91.25
21760;BME280;11041;50.854;20.580;2023-04-15T05:53:23;97732.31;;;9.50;91.12
21760;BME280;11041;50.854;20.580;2023-04-15T05:55:49;97732.75;;;9.52;90.73
21760;BME280;11041;50.854;20.580;2023-04-15T05:58:16;97730.03;;;9.52;90.34
21760;BME280;11041;50.854;20.580;2023-04-15T06:00:42;97738.09;;;9.57;90.17
21760;BME280;11041;50.854;20.580;2023-04-15T06:03:10;97741.25;;;9.59;90.36
21760;BME280;11041;50.854;20.580;2023-04-15T06:05:37;97739.47;;;9.64;89.85
21760;BME280;11041;50.854;20.580;2023-04-15T06:08:04;97745.59;;;9.69;90.41
21760;BME280;11041;50.854;20.580;2023-04-15T06:10:30;97745.03;;;9.76;89.85
21760;BME280;11041;50.854;20.580;2023-04-15T06:13:04;97744.38;;;9.79;89.59
21760;BME280;11041;50.854;20.580;2023-04-15T06:15:31;97738.94;;;9.70;88.66
21760;BME280;11041;50.854;20.580;2023-04-15T06:17:57;97734.94;;;9.68;88.04
21760;BME280;11041;50.854;20.580;2023-04-15T06:20:24;97746.19;;;9.75;88.20
21760;BME280;11041;50.854;20.580;2023-04-15T06:22:51;97745.81;;;9.76;88.04
21760;BME280;11041;50.854;20.580;2023-04-15T06:25:18;97737.28;;;9.78;87.44
21760;BME280;11041;50.854;20.580;2023-04-15T06:27:45;97754.53;;;9.78;86.40
21760;BME280;11041;50.854;20.580;2023-04-15T06:30:11;97748.78;;;9.71;86.06
21760;BME280;11041;50.854;20.580;2023-04-15T06:32:39;97739.16;;;9.65;86.12
21760;BME280;11041;50.854;20.580;2023-04-15T06:35:06;97744.63;;;9.65;85.90
21760;BME280;11041;50.854;20.580;2023-04-15T06:37:32;97741.41;;;9.63;86.02
21760;BME280;11041;50.854;20.580;2023-04-15T06:39:59;97744.97;;;9.64;86.33
21760;BME280;11041;50.854;20.580;2023-04-15T06:42:26;97762.28;;;9.76;85.62
21760;BME280;11041;50.854;20.580;2023-04-15T06:44:52;97757.94;;;9.75;85.12
21760;BME280;11041;50.854;20.580;2023-04-15T06:47:19;97773.41;;;9.80;84.36
21760;BME280;11041;50.854;20.580;2023-04-15T06:49:45;97765.19;;;9.80;83.97
21760;BME280;11041;50.854;20.580;2023-04-15T06:52:12;97764.97;;;9.85;83.05
21760;BME280;11041;50.854;20.580;2023-04-15T06:54:38;97779.28;;;9.91;82.81
21760;BME280;11041;50.854;20.580;2023-04-15T06:57:05;97772.88;;;9.87;82.80
21760;BME280;11041;50.854;20.580;2023-04-15T06:59:32;97779.75;;;9.93;83.17
21760;BME280;11041;50.854;20.580;2023-04-15T07:01:59;97778.69;;;9.85;82.03
21760;BME280;11041;50.854;20.580;2023-04-15T07:04:26;97788.81;;;9.93;81.80
21760;BME280;11041;50.854;20.580;2023-04-15T07:06:53;97785.41;;;9.96;82.21
21760;BME280;11041;50.854;20.580;2023-04-15T07:09:22;97780.97;;;10.04;81.35
21760;BME280;11041;50.854;20.580;2023-04-15T07:11:49;97781.09;;;10.08;81.66
21760;BME280;11041;50.854;20.580;2023-04-15T07:14:17;97789.84;;;10.22;81.56
21760;BME280;11041;50.854;20.580;2023-04-15T07:16:43;97782.72;;;10.30;80.71
21760;BME280;11041;50.854;20.580;2023-04-15T07:19:10;97781.44;;;10.27;79.72
21760;BME280;11041;50.854;20.580;2023-04-15T07:21:37;97793.28;;;10.40;79.44
21760;BME280;11041;50.854;20.580;2023-04-15T07:24:04;97787.13;;;10.43;77.87
21760;BME280;11041;50.854;20.580;2023-04-15T07:26:31;97792.28;;;10.44;77.91
21760;BME280;11041;50.854;20.580;2023-04-15T07:28:57;97784.03;;;10.44;76.95
21760;BME280;11041;50.854;20.580;2023-04-15T07:31:24;97794.66;;;10.46;77.40
21760;BME280;11041;50.854;20.580;2023-04-15T07:33:50;97793.34;;;10.52;76.94
21760;BME280;11041;50.854;20.580;2023-04-15T07:36:17;97801.69;;;10.56;76.21
21760;BME280;11041;50.854;20.580;2023-04-15T07:38:43;97801.03;;;10.59;76.72
21760;BME280;11041;50.854;20.580;2023-04-15T07:41:10;97800.13;;;10.67;76.90
21760;BME280;11041;50.854;20.580;2023-04-15T07:43:37;97803.47;;;10.73;74.45
21760;BME280;11041;50.854;20.580;2023-04-15T07:46:04;97803.03;;;10.83;74.53
21760;BME280;11041;50.854;20.580;2023-04-15T07:48:31;97802.59;;;10.93;74.11
21760;BME280;11041;50.854;20.580;2023-04-15T07:50:58;97794.81;;;10.95;73.28
21760;BME280;11041;50.854;20.580;2023-04-15T07:53:24;97785.56;;;11.00;72.35
21760;BME280;11041;50.854;20.580;2023-04-15T07:55:51;97790.13;;;11.08;71.96
21760;BME280;11041;50.854;20.580;2023-04-15T07:58:17;97798.53;;;11.12;72.11
21760;BME280;11041;50.854;20.580;2023-04-15T08:00:44;97806.06;;;11.15;72.20
21760;BME280;11041;50.854;20.580;2023-04-15T08:03:11;97810.19;;;11.08;70.90
21760;BME280;11041;50.854;20.580;2023-04-15T08:05:37;97813.75;;;11.21;71.31
21760;BME280;11041;50.854;20.580;2023-04-15T08:08:04;97815.91;;;11.28;71.82
21760;BME280;11041;50.854;20.580;2023-04-15T08:10:31;97814.22;;;11.36;70.34
21760;BME280;11041;50.854;20.580;2023-04-15T08:12:58;97810.66;;;11.35;70.13
21760;BME280;11041;50.854;20.580;2023-04-15T08:15:25;97812.75;;;11.38;69.90
21760;BME280;11041;50.854;20.580;2023-04-15T08:17:52;97823.50;;;11.43;69.61
21760;BME280;11041;50.854;20.580;2023-04-15T08:20:18;97810.88;;;11.42;68.81
21760;BME280;11041;50.854;20.580;2023-04-15T08:22:45;97815.25;;;11.43;68.43
21760;BME280;11041;50.854;20.580;2023-04-15T08:25:17;97815.72;;;11.45;68.28
21760;BME280;11041;50.854;20.580;2023-04-15T08:27:45;97820.53;;;11.48;67.63
21760;BME280;11041;50.854;20.580;2023-04-15T08:30:12;97824.44;;;11.60;67.61
21760;BME280;11041;50.854;20.580;2023-04-15T08:32:41;97815.16;;;11.64;66.72
21760;BME280;11041;50.854;20.580;2023-04-15T08:35:12;97818.78;;;11.68;65.93
21760;BME280;11041;50.854;20.580;2023-04-15T08:37:39;97819.16;;;11.67;67.97
21760;BME280;11041;50.854;20.580;2023-04-15T08:40:06;97819.94;;;11.67;67.35
21760;BME280;11041;50.854;20.580;2023-04-15T08:42:43;97815.38;;;11.71;67.31
21760;BME280;11041;50.854;20.580;2023-04-15T08:45:14;97818.00;;;11.68;67.63
21760;BME280;11041;50.854;20.580;2023-04-15T08:47:44;97811.59;;;11.76;66.22
21760;BME280;11041;50.854;20.580;2023-04-15T08:50:15;97820.50;;;11.85;65.67
21760;BME280;11041;50.854;20.580;2023-04-15T08:52:41;97811.09;;;11.86;65.80
21760;BME280;11041;50.854;20.580;2023-04-15T08:55:11;97823.16;;;11.94;66.31
21760;BME280;11041;50.854;20.580;2023-04-15T08:57:38;97821.31;;;11.98;65.77
21760;BME280;11041;50.854;20.580;2023-04-15T09:00:06;97818.56;;;11.98;66.92
21760;BME280;11041;50.854;20.580;2023-04-15T09:02:34;97833.19;;;12.14;65.48
21760;BME280;11041;50.854;20.580;2023-04-15T09:05:02;97836.63;;;12.24;64.94
21760;BME280;11041;50.854;20.580;2023-04-15T09:07:33;97842.34;;;12.31;64.47
21760;BME280;11041;50.854;20.580;2023-04-15T09:10:04;97831.31;;;12.31;64.21
21760;BME280;11041;50.854;20.580;2023-04-15T09:12:33;97839.91;;;12.42;63.46
21760;BME280;11041;50.854;20.580;2023-04-15T09:15:02;97840.72;;;12.42;64.10
21760;BME280;11041;50.854;20.580;2023-04-15T09:17:32;97844.72;;;12.45;61.12
21760;BME280;11041;50.854;20.580;2023-04-15T09:20:14;97855.06;;;12.35;61.54
21760;BME280;11041;50.854;20.580;2023-04-15T09:22:42;97841.47;;;12.27;62.20
21760;BME280;11041;50.854;20.580;2023-04-15T09:27:49;97830.53;;;12.30;61.73
21760;BME280;11041;50.854;20.580;2023-04-15T09:30:16;97824.44;;;12.37;63.13
21760;BME280;11041;50.854;20.580;2023-04-15T09:32:57;97824.28;;;12.46;62.95
21760;BME280;11041;50.854;20.580;2023-04-15T09:35:25;97819.91;;;12.45;62.86
21760;BME280;11041;50.854;20.580;2023-04-15T09:38:04;97831.94;;;12.52;63.24
21760;BME280;11041;50.854;20.580;2023-04-15T09:40:40;97831.94;;;12.52;62.64
21760;BME280;11041;50.854;20.580;2023-04-15T09:43:09;97839.16;;;12.57;62.80
21760;BME280;11041;50.854;20.580;2023-04-15T09:45:38;97846.72;;;12.60;62.31
21760;BME280;11041;50.854;20.580;2023-04-15T09:50:43;97824.13;;;12.54;62.22
21760;BME280;11041;50.854;20.580;2023-04-15T09:53:10;97830.09;;;12.56;62.66
21760;BME280;11041;50.854;20.580;2023-04-15T09:55:55;97833.31;;;12.58;62.29
21760;BME280;11041;50.854;20.580;2023-04-15T09:58:28;97838.03;;;12.58;61.75
21760;BME280;11041;50.854;20.580;2023-04-15T10:00:58;97834.19;;;12.63;62.61
21760;BME280;11041;50.854;20.580;2023-04-15T10:03:28;97842.44;;;12.75;61.70
21760;BME280;11041;50.854;20.580;2023-04-15T10:05:58;97838.63;;;12.79;61.96
21760;BME280;11041;50.854;20.580;2023-04-15T10:08:31;97833.72;;;12.89;60.77
21760;BME280;11041;50.854;20.580;2023-04-15T10:11:01;97842.09;;;12.92;61.36
21760;BME280;11041;50.854;20.580;2023-04-15T10:13:31;97830.63;;;12.90;60.94
21760;BME280;11041;50.854;20.580;2023-04-15T10:16:12;97841.06;;;12.97;60.74
21760;BME280;11041;50.854;20.580;2023-04-15T10:18:45;97838.81;;;13.03;61.54
21760;BME280;11041;50.854;20.580;2023-04-15T10:21:13;97840.78;;;13.02;61.99
21760;BME280;11041;50.854;20.580;2023-04-15T10:23:45;97841.97;;;13.17;62.99
21760;BME280;11041;50.854;20.580;2023-04-15T10:26:13;97836.94;;;13.35;62.25
21760;BME280;11041;50.854;20.580;2023-04-15T10:28:41;97836.75;;;13.43;60.49
21760;BME280;11041;50.854;20.580;2023-04-15T10:31:11;97833.66;;;13.45;60.25
21760;BME280;11041;50.854;20.580;2023-04-15T10:33:39;97837.19;;;13.46;60.59
21760;BME280;11041;50.854;20.580;2023-04-15T10:36:07;97847.63;;;13.52;59.37
21760;BME280;11041;50.854;20.580;2023-04-15T10:38:40;97841.53;;;13.47;58.32
21760;BME280;11041;50.854;20.580;2023-04-15T10:41:27;97842.78;;;13.49;57.89
21760;BME280;11041;50.854;20.580;2023-04-15T10:44:03;97833.72;;;13.49;58.19
21760;BME280;11041;50.854;20.580;2023-04-15T10:46:45;97843.34;;;13.55;58.91
21760;BME280;11041;50.854;20.580;2023-04-15T10:49:23;97835.75;;;13.68;57.54
21760;BME280;11041;50.854;20.580;2023-04-15T10:51:56;97831.38;;;13.82;58.27
21760;BME280;11041;50.854;20.580;2023-04-15T11:02:58;97837.97;;;14.13;56.30
21760;BME280;11041;50.854;20.580;2023-04-15T11:05:56;97829.34;;;14.15;54.91
21760;BME280;11041;50.854;20.580;2023-04-15T11:09:01;97824.44;;;14.08;56.07
21760;BME280;11041;50.854;20.580;2023-04-15T11:12:09;97837.53;;;14.11;57.51
21760;BME280;11041;50.854;20.580;2023-04-15T11:14:40;97820.19;;;13.95;57.59
21760;BME280;11041;50.854;20.580;2023-04-15T11:17:08;97834.16;;;14.02;56.73
21760;BME280;11041;50.854;20.580;2023-04-15T11:19:38;97824.75;;;14.03;56.76
21760;BME280;11041;50.854;20.580;2023-04-15T11:22:11;97816.63;;;14.10;56.66
21760;BME280;11041;50.854;20.580;2023-04-15T11:24:47;97821.91;;;14.19;56.71
21760;BME280;11041;50.854;20.580;2023-04-15T11:27:23;97826.88;;;14.29;55.93
21760;BME280;11041;50.854;20.580;2023-04-15T11:29:50;97821.88;;;14.35;55.94
21760;BME280;11041;50.854;20.580;2023-04-15T11:32:16;97822.31;;;14.37;56.77
21760;BME280;11041;50.854;20.580;2023-04-15T11:34:45;97815.09;;;14.32;56.85
21760;BME280;11041;50.854;20.580;2023-04-15T11:37:12;97828.78;;;14.44;55.69
21760;BME280;11041;50.854;20.580;2023-04-15T11:39:39;97822.06;;;14.45;56.30
21760;BME280;11041;50.854;20.580;2023-04-15T11:42:17;97821.53;;;14.56;55.60
21760;BME280;11041;50.854;20.580;2023-04-15T11:44:43;97828.00;;;14.63;53.95
21760;BME280;11041;50.854;20.580;2023-04-15T11:47:25;97827.72;;;14.68;53.57
21760;BME280;11041;50.854;20.580;2023-04-15T11:49:52;97822.75;;;14.78;52.76
21760;BME280;11041;50.854;20.580;2023-04-15T11:52:18;97823.91;;;14.96;53.44
21760;BME280;11041;50.854;20.580;2023-04-15T11:54:46;97833.19;;;15.07;53.26
21760;BME280;11041;50.854;20.580;2023-04-15T11:57:13;97824.22;;;15.14;53.03
21760;BME280;11041;50.854;20.580;2023-04-15T11:59:43;97821.94;;;15.20;52.54
21760;BME280;11041;50.854;20.580;2023-04-15T12:02:13;97831.47;;;15.22;52.85
21760;BME280;11041;50.854;20.580;2023-04-15T12:04:39;97830.63;;;15.18;52.24
21760;BME280;11041;50.854;20.580;2023-04-15T12:07:07;97849.88;;;15.11;52.13
21760;BME280;11041;50.854;20.580;2023-04-15T12:09:37;97844.56;;;15.02;52.80
21760;BME280;11041;50.854;20.580;2023-04-15T12:12:05;97842.53;;;14.99;52.99
21760;BME280;11041;50.854;20.580;2023-04-15T12:14:33;97834.88;;;14.93;53.10
21760;BME280;11041;50.854;20.580;2023-04-15T12:17:02;97840.78;;;14.91;52.50
21760;BME280;11041;50.854;20.580;2023-04-15T12:19:43;97842.69;;;14.87;52.88
21760;BME280;11041;50.854;20.580;2023-04-15T12:22:16;97845.91;;;14.89;50.53
21760;BME280;11041;50.854;20.580;2023-04-15T12:24:43;97838.25;;;14.82;51.86
21760;BME280;11041;50.854;20.580;2023-04-15T12:27:15;97836.59;;;14.78;52.55
21760;BME280;11041;50.854;20.580;2023-04-15T12:29:43;97844.16;;;14.81;53.16
21760;BME280;11041;50.854;20.580;2023-04-15T12:32:16;97845.47;;;14.87;54.00
21760;BME280;11041;50.854;20.580;2023-04-15T12:34:54;97840.50;;;14.96;53.56
21760;BME280;11041;50.854;20.580;2023-04-15T12:37:20;97828.69;;;15.22;53.17
21760;BME280;11041;50.854;20.580;2023-04-15T12:39:48;97826.59;;;15.62;49.58
21760;BME280;11041;50.854;20.580;2023-04-15T12:42:17;97840.88;;;15.87;52.12
21760;BME280;11041;50.854;20.580;2023-04-15T12:44:43;97835.50;;;15.97;49.87
21760;BME280;11041;50.854;20.580;2023-04-15T12:47:11;97825.75;;;16.07;47.25
21760;BME280;11041;50.854;20.580;2023-04-15T12:49:38;97838.09;;;16.13;48.15
21760;BME280;11041;50.854;20.580;2023-04-15T12:52:07;97828.72;;;16.22;48.34
21760;BME280;11041;50.854;20.580;2023-04-15T12:54:34;97831.91;;;16.24;49.33
21760;BME280;11041;50.854;20.580;2023-04-15T12:57:01;97835.41;;;16.21;47.97
21760;BME280;11041;50.854;20.580;2023-04-15T12:59:28;97833.53;;;16.28;46.21
21760;BME280;11041;50.854;20.580;2023-04-15T13:01:55;97849.63;;;16.46;46.57
21760;BME280;11041;50.854;20.580;2023-04-15T13:04:22;97842.72;;;16.63;46.47
21760;BME280;11041;50.854;20.580;2023-04-15T13:06:49;97832.94;;;16.76;45.49
21760;BME280;11041;50.854;20.580;2023-04-15T13:09:16;97836.31;;;16.89;46.47
21760;BME280;11041;50.854;20.580;2023-04-15T13:11:43;97839.25;;;17.03;45.22
21760;BME280;11041;50.854;20.580;2023-04-15T13:14:10;97840.38;;;16.98;43.96
21760;BME280;11041;50.854;20.580;2023-04-15T13:16:41;97849.00;;;16.90;43.07